sensor_id;sensor_type;location;lat;lon;timestamp;temperature;humidity
4081;DHT22;2055;50.074;8.436;2022-11-20T00:00:01;2.40;99.90
4081;DHT22;2055;50.074;8.436;2022-11-20T00:02:26;2.40;99.90
4081;DHT22;2055;50.074;8.436;2022-11-20T00:04:52;2.30;99.90
4081;DHT22;2055;50.074;8.436;2022-11-20T00:07:17;2.50;99.90
4081;DHT22;2055;50.074;8.436;2022-11-20T00:09:43;2.50;99.90
4081;DHT22;2055;50.074;8.436;2022-11-20T00:12:08;2.50;99.90
4081;DHT22;2055;50.074;8.436;2022-11-20T00:14:34;2.50;99.90
4081;DHT22;2055;50.074;8.436;2022-11-20T00:16:59;2.50;99.90
4081;DHT22;2055;50.074;8.436;2022-11-20T00:19:25;2.50;99.90
4081;DHT22;2055;50.074;8.436;2022-11-20T00:21:51;2.50;99.90
4081;DHT22;2055;50.074;8.436;2022-11-20T00:24:19;2.40;99.90
4081;DHT22;2055;50.074;8.436;2022-11-20T00:26:44;2.50;99.90
4081;DHT22;2055;50.074;8.436;2022-11-20T00:29:10;2.40;99.90
4081;DHT22;2055;50.074;8.436;2022-11-20T00:31:36;2.30;99.90
4081;DHT22;2055;50.074;8.436;2022-11-20T00:34:01;2.30;99.90
4081;DHT22;2055;50.074;8.436;2022-11-20T00:36:28;2.30;99.90
4081;DHT22;2055;50.074;8.436;2022-11-20T00:38:56;2.30;99.90
4081;DHT22;2055;50.074;8.436;2022-11-20T00:41:23;2.20;99.90
4081;DHT22;2055;50.074;8.436;2022-11-20T00:43:49;2.20;99.90
4081;DHT22;2055;50.074;8.436;2022-11-20T00:46:19;2.10;99.90
4081;DHT22;2055;50.074;8.436;2022-11-20T00:48:45;2.10;99.90
4081;DHT22;2055;50.074;8.436;2022-11-20T00:51:13;2.10;99.90
4081;DHT22;2055;50.074;8.436;2022-11-20T00:53:38;2.10;99.90
4081;DHT22;2055;50.074;8.436;2022-11-20T00:56:07;2.10;99.90
4081;DHT22;2055;50.074;8.436;2022-11-20T00:58:34;2.10;99.90
4081;DHT22;2055;50.074;8.436;2022-11-20T01:01:05;2.10;99.90
4081;DHT22;2055;50.074;8.436;2022-11-20T01:03:32;2.10;99.90
4081;DHT22;2055;50.074;8.436;2022-11-20T01:06:02;2.10;99.90
4081;DHT22;2055;50.074;8.436;2022-11-20T01:08:35;2.00;99.90
4081;DHT22;2055;50.074;8.436;2022-11-20T01:11:09;2.10;99.90
4081;DHT22;2055;50.074;8.436;2022-11-20T01:13:35;2.00;99.90
4081;DHT22;2055;50.074;8.436;2022-11-20T01:16:21;2.00;99.90
4081;DHT22;2055;50.074;8.436;2022-11-20T01:18:52;2.00;99.90
4081;DHT22;2055;50.074;8.436;2022-11-20T01:21:21;2.00;99.90
4081;DHT22;2055;50.074;8.436;2022-11-20T01:23:48;2.00;99.90
4081;DHT22;2055;50.074;8.436;2022-11-20T01:26:17;2.10;99.90
4081;DHT22;2055;50.074;8.436;2022-11-20T01:28:43;2.20;99.90
4081;DHT22;2055;50.074;8.436;2022-11-20T01:31:15;2.20;99.90
4081;DHT22;2055;50.074;8.436;2022-11-20T01:33:42;2.10;99.90
4081;DHT22;2055;50.074;8.436;2022-11-20T01:36:08;2.10;99.90
4081;DHT22;2055;50.074;8.436;2022-11-20T01:38:34;2.10;99.90
4081;DHT22;2055;50.074;8.436;2022-11-20T01:41:00;2.20;99.90
4081;DHT22;2055;50.074;8.436;2022-11-20T01:43:25;2.20;99.90
4081;DHT22;2055;50.074;8.436;2022-11-20T01:48:18;2.20;99.90
4081;DHT22;2055;50.074;8.436;2022-11-20T01:50:44;2.20;99.90
4081;DHT22;2055;50.074;8.436;2022-11-20T01:53:15;2.30;99.90
4081;DHT22;2055;50.074;8.436;2022-11-20T01:55:53;2.30;99.90
4081;DHT22;2055;50.074;8.436;2022-11-20T01:58:24;2.30;99.90
4081;DHT22;2055;50.074;8.436;2022-11-20T02:00:51;2.20;99.90
4081;DHT22;2055;50.074;8.436;2022-11-20T02:03:18;2.20;99.90
4081;DHT22;2055;50.074;8.436;2022-11-20T02:08:35;2.10;99.90
4081;DHT22;2055;50.074;8.436;2022-11-20T02:11:01;2.10;99.90
4081;DHT22;2055;50.074;8.436;2022-11-20T02:13:27;2.10;99.90
4081;DHT22;2055;50.074;8.436;2022-11-20T02:16:25;2.10;99.90
4081;DHT22;2055;50.074;8.436;2022-11-20T02:18:52;2.20;99.90
4081;DHT22;2055;50.074;8.436;2022-11-20T02:24:19;2.20;99.90
4081;DHT22;2055;50.074;8.436;2022-11-20T02:26:52;2.30;99.90
4081;DHT22;2055;50.074;8.436;2022-11-20T02:29:28;2.20;99.90
4081;DHT22;2055;50.074;8.436;2022-11-20T02:31:56;2.20;99.90
4081;DHT22;2055;50.074;8.436;2022-11-20T02:34:23;2.20;99.90
4081;DHT22;2055;50.074;8.436;2022-11-20T02:36:49;2.20;99.90
4081;DHT22;2055;50.074;8.436;2022-11-20T02:39:16;2.10;99.90
4081;DHT22;2055;50.074;8.436;2022-11-20T02:41:42;2.10;99.90
4081;DHT22;2055;50.074;8.436;2022-11-20T02:44:08;2.20;99.90
4081;DHT22;2055;50.074;8.436;2022-11-20T02:46:34;2.20;99.90
4081;DHT22;2055;50.074;8.436;2022-11-20T02:49:02;2.20;99.90
4081;DHT22;2055;50.074;8.436;2022-11-20T02:51:28;2.20;99.90
4081;DHT22;2055;50.074;8.436;2022-11-20T02:53:53;2.20;99.90
4081;DHT22;2055;50.074;8.436;2022-11-20T02:56:19;2.20;99.90
4081;DHT22;2055;50.074;8.436;2022-11-20T02:58:45;2.30;99.90
4081;DHT22;2055;50.074;8.436;2022-11-20T03:01:10;2.30;99.90
4081;DHT22;2055;50.074;8.436;2022-11-20T03:03:36;2.30;99.90
4081;DHT22;2055;50.074;8.436;2022-11-20T03:06:01;2.30;99.90
4081;DHT22;2055;50.074;8.436;2022-11-20T03:08:27;2.30;99.90
4081;DHT22;2055;50.074;8.436;2022-11-20T03:10:53;2.30;99.90
4081;DHT22;2055;50.074;8.436;2022-11-20T03:13:19;2.30;99.90
4081;DHT22;2055;50.074;8.436;2022-11-20T03:15:44;2.30;99.90
4081;DHT22;2055;50.074;8.436;2022-11-20T03:18:10;2.40;99.90
4081;DHT22;2055;50.074;8.436;2022-11-20T03:20:35;2.40;99.90
4081;DHT22;2055;50.074;8.436;2022-11-20T03:23:01;2.40;99.90
4081;DHT22;2055;50.074;8.436;2022-11-20T03:25:27;2.40;99.90
4081;DHT22;2055;50.074;8.436;2022-11-20T03:27:54;2.40;99.90
4081;DHT22;2055;50.074;8.436;2022-11-20T03:30:19;2.40;99.90
4081;DHT22;2055;50.074;8.436;2022-11-20T03:32:45;2.40;99.90
4081;DHT22;2055;50.074;8.436;2022-11-20T03:35:11;2.40;99.90
4081;DHT22;2055;50.074;8.436;2022-11-20T03:37:36;2.30;99.90
4081;DHT22;2055;50.074;8.436;2022-11-20T03:40:02;2.30;99.90
4081;DHT22;2055;50.074;8.436;2022-11-20T03:42:28;2.30;99.90
4081;DHT22;2055;50.074;8.436;2022-11-20T03:45:16;2.40;99.90
4081;DHT22;2055;50.074;8.436;2022-11-20T03:47:42;2.40;99.90
4081;DHT22;2055;50.074;8.436;2022-11-20T03:50:09;2.40;99.90
4081;DHT22;2055;50.074;8.436;2022-11-20T03:52:35;2.30;99.90
4081;DHT22;2055;50.074;8.436;2022-11-20T03:55:05;2.30;99.90
4081;DHT22;2055;50.074;8.436;2022-11-20T03:57:30;2.30;99.90
4081;DHT22;2055;50.074;8.436;2022-11-20T03:59:56;2.30;99.90
4081;DHT22;2055;50.074;8.436;2022-11-20T04:02:22;2.30;99.90
4081;DHT22;2055;50.074;8.436;2022-11-20T04:04:47;2.30;99.90
4081;DHT22;2055;50.074;8.436;2022-11-20T04:07:13;2.30;99.90
4081;DHT22;2055;50.074;8.436;2022-11-20T04:09:38;2.30;99.90
4081;DHT22;2055;50.074;8.436;2022-11-20T04:12:04;2.30;99.90
4081;DHT22;2055;50.074;8.436;2022-11-20T04:14:30;2.30;99.90
4081;DHT22;2055;50.074;8.436;2022-11-20T04:16:55;2.30;99.90
4081;DHT22;2055;50.074;8.436;2022-11-20T04:19:21;2.30;99.90
4081;DHT22;2055;50.074;8.436;2022-11-20T04:21:46;2.40;99.90
4081;DHT22;2055;50.074;8.436;2022-11-20T04:24:12;2.40;99.90
4081;DHT22;2055;50.074;8.436;2022-11-20T04:26:38;2.30;99.90
4081;DHT22;2055;50.074;8.436;2022-11-20T04:29:03;2.30;99.90
4081;DHT22;2055;50.074;8.436;2022-11-20T04:31:31;2.40;99.90
4081;DHT22;2055;50.074;8.436;2022-11-20T04:34:02;2.40;99.90
4081;DHT22;2055;50.074;8.436;2022-11-20T04:36:28;2.30;99.90
4081;DHT22;2055;50.074;8.436;2022-11-20T04:39:04;2.30;99.90
4081;DHT22;2055;50.074;8.436;2022-11-20T04:41:33;2.30;99.90
4081;DHT22;2055;50.074;8.436;2022-11-20T04:44:00;2.30;99.90
4081;DHT22;2055;50.074;8.436;2022-11-20T04:46:33;2.20;99.90
4081;DHT22;2055;50.074;8.436;2022-11-20T04:48:59;2.20;99.90
4081;DHT22;2055;50.074;8.436;2022-11-20T04:51:25;2.10;99.90
4081;DHT22;2055;50.074;8.436;2022-11-20T04:53:50;2.10;99.90
4081;DHT22;2055;50.074;8.436;2022-11-20T04:56:16;2.20;99.90
4081;DHT22;2055;50.074;8.436;2022-11-20T04:58:42;2.20;99.90
4081;DHT22;2055;50.074;8.436;2022-11-20T05:01:20;2.20;99.90
4081;DHT22;2055;50.074;8.436;2022-11-20T05:03:46;2.30;99.90
4081;DHT22;2055;50.074;8.436;2022-11-20T05:06:15;2.30;99.90
4081;DHT22;2055;50.074;8.436;2022-11-20T05:08:41;2.30;99.90
4081;DHT22;2055;50.074;8.436;2022-11-20T05:11:09;2.30;99.90
4081;DHT22;2055;50.074;8.436;2022-11-20T05:13:36;2.30;99.90
4081;DHT22;2055;50.074;8.436;2022-11-20T05:16:04;2.20;99.90
4081;DHT22;2055;50.074;8.436;2022-11-20T05:18:30;2.30;99.90
4081;DHT22;2055;50.074;8.436;2022-11-20T05:20:59;2.20;99.90
4081;DHT22;2055;50.074;8.436;2022-11-20T05:23:25;2.20;99.90
4081;DHT22;2055;50.074;8.436;2022-11-20T05:25:54;2.30;99.90
4081;DHT22;2055;50.074;8.436;2022-11-20T05:28:21;2.20;99.90
4081;DHT22;2055;50.074;8.436;2022-11-20T05:30:47;2.20;99.90
4081;DHT22;2055;50.074;8.436;2022-11-20T05:33:13;2.30;99.90
4081;DHT22;2055;50.074;8.436;2022-11-20T05:35:38;2.20;99.90
4081;DHT22;2055;50.074;8.436;2022-11-20T05:38:04;2.30;99.90
4081;DHT22;2055;50.074;8.436;2022-11-20T05:40:29;2.20;99.90
4081;DHT22;2055;50.074;8.436;2022-11-20T05:42:55;2.30;99.90
4081;DHT22;2055;50.074;8.436;2022-11-20T05:45:20;2.30;99.90
4081;DHT22;2055;50.074;8.436;2022-11-20T05:47:46;2.30;99.90
4081;DHT22;2055;50.074;8.436;2022-11-20T05:50:12;2.30;99.90
4081;DHT22;2055;50.074;8.436;2022-11-20T05:52:37;2.30;99.90
4081;DHT22;2055;50.074;8.436;2022-11-20T05:55:03;2.30;99.90
4081;DHT22;2055;50.074;8.436;2022-11-20T05:57:28;2.30;99.90
4081;DHT22;2055;50.074;8.436;2022-11-20T05:59:54;2.30;99.90
4081;DHT22;2055;50.074;8.436;2022-11-20T06:02:19;2.30;99.90
4081;DHT22;2055;50.074;8.436;2022-11-20T06:04:45;2.30;99.90
4081;DHT22;2055;50.074;8.436;2022-11-20T06:07:10;2.20;99.90
4081;DHT22;2055;50.074;8.436;2022-11-20T06:09:36;2.20;99.90
4081;DHT22;2055;50.074;8.436;2022-11-20T06:12:01;2.30;99.90
4081;DHT22;2055;50.074;8.436;2022-11-20T06:14:27;2.30;99.90
4081;DHT22;2055;50.074;8.436;2022-11-20T06:16:53;2.40;99.90
4081;DHT22;2055;50.074;8.436;2022-11-20T06:19:18;2.40;99.90
4081;DHT22;2055;50.074;8.436;2022-11-20T06:21:44;2.40;99.90
4081;DHT22;2055;50.074;8.436;2022-11-20T06:24:10;2.40;99.90
4081;DHT22;2055;50.074;8.436;2022-11-20T06:26:35;2.40;99.90
4081;DHT22;2055;50.074;8.436;2022-11-20T06:29:01;2.40;99.90
4081;DHT22;2055;50.074;8.436;2022-11-20T06:31:27;2.40;99.90
4081;DHT22;2055;50.074;8.436;2022-11-20T06:33:53;2.50;99.90
4081;DHT22;2055;50.074;8.436;2022-11-20T06:36:20;2.50;99.90
4081;DHT22;2055;50.074;8.436;2022-11-20T06:38:46;2.50;99.90
4081;DHT22;2055;50.074;8.436;2022-11-20T06:41:14;2.50;99.90
4081;DHT22;2055;50.074;8.436;2022-11-20T06:43:40;2.50;99.90
4081;DHT22;2055;50.074;8.436;2022-11-20T06:46:06;2.20;99.90
4081;DHT22;2055;50.074;8.436;2022-11-20T06:48:32;2.50;99.90
4081;DHT22;2055;50.074;8.436;2022-11-20T06:50:57;2.50;99.90
4081;DHT22;2055;50.074;8.436;2022-11-20T06:53:24;2.50;99.90
4081;DHT22;2055;50.074;8.436;2022-11-20T06:55:51;2.40;99.90
4081;DHT22;2055;50.074;8.436;2022-11-20T06:58:17;2.50;99.90
4081;DHT22;2055;50.074;8.436;2022-11-20T07:00:43;2.50;99.90
4081;DHT22;2055;50.074;8.436;2022-11-20T07:03:10;2.50;99.90
4081;DHT22;2055;50.074;8.436;2022-11-20T07:05:37;2.50;99.90
4081;DHT22;2055;50.074;8.436;2022-11-20T07:08:04;2.50;99.90
4081;DHT22;2055;50.074;8.436;2022-11-20T07:10:30;2.50;99.90
4081;DHT22;2055;50.074;8.436;2022-11-20T07:12:55;2.50;99.90
4081;DHT22;2055;50.074;8.436;2022-11-20T07:15:22;2.50;99.90
4081;DHT22;2055;50.074;8.436;2022-11-20T07:17:48;2.60;99.90
4081;DHT22;2055;50.074;8.436;2022-11-20T07:20:14;2.50;99.90
4081;DHT22;2055;50.074;8.436;2022-11-20T07:22:40;2.50;99.90
4081;DHT22;2055;50.074;8.436;2022-11-20T07:25:06;2.50;99.90
4081;DHT22;2055;50.074;8.436;2022-11-20T07:27:32;2.50;99.90
4081;DHT22;2055;50.074;8.436;2022-11-20T07:29:58;2.50;99.90
4081;DHT22;2055;50.074;8.436;2022-11-20T07:32:23;2.50;99.90
4081;DHT22;2055;50.074;8.436;2022-11-20T07:34:49;2.60;99.90
4081;DHT22;2055;50.074;8.436;2022-11-20T07:37:15;2.60;99.90
4081;DHT22;2055;50.074;8.436;2022-11-20T07:39:41;2.70;99.90
4081;DHT22;2055;50.074;8.436;2022-11-20T07:42:07;2.70;99.90
4081;DHT22;2055;50.074;8.436;2022-11-20T07:44:32;2.70;99.90
4081;DHT22;2055;50.074;8.436;2022-11-20T07:46:58;2.70;99.90
4081;DHT22;2055;50.074;8.436;2022-11-20T07:49:24;2.70;99.90
4081;DHT22;2055;50.074;8.436;2022-11-20T07:51:53;2.70;99.90
4081;DHT22;2055;50.074;8.436;2022-11-20T07:54:20;2.80;99.90
4081;DHT22;2055;50.074;8.436;2022-11-20T07:56:46;2.80;99.90
4081;DHT22;2055;50.074;8.436;2022-11-20T07:59:11;2.90;99.90
4081;DHT22;2055;50.074;8.436;2022-11-20T08:01:38;2.90;99.90
4081;DHT22;2055;50.074;8.436;2022-11-20T08:04:03;2.90;99.90
4081;DHT22;2055;50.074;8.436;2022-11-20T08:06:29;3.00;99.90
4081;DHT22;2055;50.074;8.436;2022-11-20T08:08:54;3.00;99.90
4081;DHT22;2055;50.074;8.436;2022-11-20T08:11:20;3.00;99.90
4081;DHT22;2055;50.074;8.436;2022-11-20T08:14:04;3.00;99.90
4081;DHT22;2055;50.074;8.436;2022-11-20T08:16:46;3.10;99.90
4081;DHT22;2055;50.074;8.436;2022-11-20T08:19:13;3.20;99.90
4081;DHT22;2055;50.074;8.436;2022-11-20T08:21:39;3.20;99.90
4081;DHT22;2055;50.074;8.436;2022-11-20T08:24:06;3.20;99.90
4081;DHT22;2055;50.074;8.436;2022-11-20T08:26:32;3.20;99.90
4081;DHT22;2055;50.074;8.436;2022-11-20T08:28:58;3.30;99.90
4081;DHT22;2055;50.074;8.436;2022-11-20T08:31:26;3.40;99.90
4081;DHT22;2055;50.074;8.436;2022-11-20T08:33:52;3.40;99.90
4081;DHT22;2055;50.074;8.436;2022-11-20T08:36:19;3.40;99.90
4081;DHT22;2055;50.074;8.436;2022-11-20T08:38:49;3.40;99.90
4081;DHT22;2055;50.074;8.436;2022-11-20T08:41:15;3.30;99.90
4081;DHT22;2055;50.074;8.436;2022-11-20T08:43:52;3.30;99.90
4081;DHT22;2055;50.074;8.436;2022-11-20T08:46:18;3.40;99.90
4081;DHT22;2055;50.074;8.436;2022-11-20T08:48:43;3.50;99.90
4081;DHT22;2055;50.074;8.436;2022-11-20T08:51:09;3.50;99.90
4081;DHT22;2055;50.074;8.436;2022-11-20T08:53:35;3.50;99.90
4081;DHT22;2055;50.074;8.436;2022-11-20T08:56:00;3.30;99.90
4081;DHT22;2055;50.074;8.436;2022-11-20T08:58:26;3.60;99.90
4081;DHT22;2055;50.074;8.436;2022-11-20T09:00:53;3.70;99.90
4081;DHT22;2055;50.074;8.436;2022-11-20T09:03:19;3.80;99.90
4081;DHT22;2055;50.074;8.436;2022-11-20T09:05:45;3.80;99.90
4081;DHT22;2055;50.074;8.436;2022-11-20T09:08:10;4.00;99.90
4081;DHT22;2055;50.074;8.436;2022-11-20T09:10:36;3.80;99.90
4081;DHT22;2055;50.074;8.436;2022-11-20T09:13:05;3.80;99.90
4081;DHT22;2055;50.074;8.436;2022-11-20T09:15:30;3.70;99.90
4081;DHT22;2055;50.074;8.436;2022-11-20T09:17:59;3.70;99.90
4081;DHT22;2055;50.074;8.436;2022-11-20T09:20:25;3.80;99.90
4081;DHT22;2055;50.074;8.436;2022-11-20T09:22:51;4.00;99.90
4081;DHT22;2055;50.074;8.436;2022-11-20T09:25:16;4.10;99.90
4081;DHT22;2055;50.074;8.436;2022-11-20T09:27:42;4.20;99.90
4081;DHT22;2055;50.074;8.436;2022-11-20T09:30:09;4.40;99.90
4081;DHT22;2055;50.074;8.436;2022-11-20T09:32:35;4.60;99.90
4081;DHT22;2055;50.074;8.436;2022-11-20T09:35:01;4.40;99.90
4081;DHT22;2055;50.074;8.436;2022-11-20T09:37:27;4.40;99.90
4081;DHT22;2055;50.074;8.436;2022-11-20T09:39:53;4.40;99.90
4081;DHT22;2055;50.074;8.436;2022-11-20T09:42:40;4.60;99.90
4081;DHT22;2055;50.074;8.436;2022-11-20T09:47:57;4.40;99.90
4081;DHT22;2055;50.074;8.436;2022-11-20T09:53:12;4.30;99.90
4081;DHT22;2055;50.074;8.436;2022-11-20T09:55:39;4.50;99.90
4081;DHT22;2055;50.074;8.436;2022-11-20T09:58:15;4.60;99.90
4081;DHT22;2055;50.074;8.436;2022-11-20T10:00:43;4.40;99.90
4081;DHT22;2055;50.074;8.436;2022-11-20T10:03:16;4.40;99.90
4081;DHT22;2055;50.074;8.436;2022-11-20T10:05:53;4.40;99.90
4081;DHT22;2055;50.074;8.436;2022-11-20T10:08:23;4.50;99.90
4081;DHT22;2055;50.074;8.436;2022-11-20T10:30:11;4.20;99.90
4081;DHT22;2055;50.074;8.436;2022-11-20T10:32:49;4.20;99.90
4081;DHT22;2055;50.074;8.436;2022-11-20T10:35:37;4.20;99.90
4081;DHT22;2055;50.074;8.436;2022-11-20T10:38:12;4.30;99.90
4081;DHT22;2055;50.074;8.436;2022-11-20T10:40:44;4.30;99.90
4081;DHT22;2055;50.074;8.436;2022-11-20T10:43:18;4.30;99.90
4081;DHT22;2055;50.074;8.436;2022-11-20T10:46:20;4.30;99.90
4081;DHT22;2055;50.074;8.436;2022-11-20T10:48:50;4.40;99.90
4081;DHT22;2055;50.074;8.436;2022-11-20T10:51:40;4.50;99.90
4081;DHT22;2055;50.074;8.436;2022-11-20T10:54:52;4.50;99.90
4081;DHT22;2055;50.074;8.436;2022-11-20T11:00:12;4.50;99.90
4081;DHT22;2055;50.074;8.436;2022-11-20T11:02:44;4.50;99.90
4081;DHT22;2055;50.074;8.436;2022-11-20T11:08:17;4.60;99.90
4081;DHT22;2055;50.074;8.436;2022-11-20T11:10:55;4.50;99.90
4081;DHT22;2055;50.074;8.436;2022-11-20T11:13:24;4.50;99.90
4081;DHT22;2055;50.074;8.436;2022-11-20T11:15:51;4.50;99.90
4081;DHT22;2055;50.074;8.436;2022-11-20T11:18:28;4.50;99.90
4081;DHT22;2055;50.074;8.436;2022-11-20T11:20:56;4.50;99.90
4081;DHT22;2055;50.074;8.436;2022-11-20T11:23:34;4.50;99.90
4081;DHT22;2055;50.074;8.436;2022-11-20T11:26:02;4.60;99.90
4081;DHT22;2055;50.074;8.436;2022-11-20T11:28:28;4.60;99.90
4081;DHT22;2055;50.074;8.436;2022-11-20T11:30:55;4.70;99.90
4081;DHT22;2055;50.074;8.436;2022-11-20T11:33:26;4.90;99.90
4081;DHT22;2055;50.074;8.436;2022-11-20T11:35:53;5.10;99.90
4081;DHT22;2055;50.074;8.436;2022-11-20T11:38:37;5.00;99.90
4081;DHT22;2055;50.074;8.436;2022-11-20T11:41:05;5.10;99.90
4081;DHT22;2055;50.074;8.436;2022-11-20T11:43:34;5.10;99.90
4081;DHT22;2055;50.074;8.436;2022-11-20T11:49:15;5.00;99.90
4081;DHT22;2055;50.074;8.436;2022-11-20T11:52:04;5.20;99.90
4081;DHT22;2055;50.074;8.436;2022-11-20T11:55:07;5.10;99.90
4081;DHT22;2055;50.074;8.436;2022-11-20T11:57:49;4.90;99.90
4081;DHT22;2055;50.074;8.436;2022-11-20T12:00:19;5.00;99.90
4081;DHT22;2055;50.074;8.436;2022-11-20T12:05:30;5.60;99.90
4081;DHT22;2055;50.074;8.436;2022-11-20T12:08:23;5.70;99.90
4081;DHT22;2055;50.074;8.436;2022-11-20T12:10:58;5.70;99.90
4081;DHT22;2055;50.074;8.436;2022-11-20T12:13:27;5.60;99.90
4081;DHT22;2055;50.074;8.436;2022-11-20T12:15:55;5.70;99.90
4081;DHT22;2055;50.074;8.436;2022-11-20T12:18:22;5.80;99.90
4081;DHT22;2055;50.074;8.436;2022-11-20T12:24:06;5.90;99.90
4081;DHT22;2055;50.074;8.436;2022-11-20T12:29:43;6.00;99.90
4081;DHT22;2055;50.074;8.436;2022-11-20T12:32:46;5.90;99.90
4081;DHT22;2055;50.074;8.436;2022-11-20T12:41:04;5.50;99.90
4081;DHT22;2055;50.074;8.436;2022-11-20T12:43:41;5.40;99.90
4081;DHT22;2055;50.074;8.436;2022-11-20T12:52:03;5.30;99.90
4081;DHT22;2055;50.074;8.436;2022-11-20T12:57:35;5.40;99.90
4081;DHT22;2055;50.074;8.436;2022-11-20T13:07:48;5.60;99.90
4081;DHT22;2055;50.074;8.436;2022-11-20T13:10:39;5.50;99.90
4081;DHT22;2055;50.074;8.436;2022-11-20T13:16:28;5.70;99.90
4081;DHT22;2055;50.074;8.436;2022-11-20T13:18:55;5.60;99.90
4081;DHT22;2055;50.074;8.436;2022-11-20T13:21:44;5.60;99.90
4081;DHT22;2055;50.074;8.436;2022-11-20T13:24:30;5.60;99.90
4081;DHT22;2055;50.074;8.436;2022-11-20T13:27:21;5.70;99.90
4081;DHT22;2055;50.074;8.436;2022-11-20T13:30:13;5.90;99.90
4081;DHT22;2055;50.074;8.436;2022-11-20T13:33:03;5.70;99.90
4081;DHT22;2055;50.074;8.436;2022-11-20T13:35:32;5.70;99.90
4081;DHT22;2055;50.074;8.436;2022-11-20T13:38:10;5.80;99.90
4081;DHT22;2055;50.074;8.436;2022-11-20T13:40:59;5.70;99.90
4081;DHT22;2055;50.074;8.436;2022-11-20T13:43:37;5.60;99.90
4081;DHT22;2055;50.074;8.436;2022-11-20T13:46:06;5.50;99.90
4081;DHT22;2055;50.074;8.436;2022-11-20T13:48:34;5.50;99.90
4081;DHT22;2055;50.074;8.436;2022-11-20T13:51:14;5.50;99.90
4081;DHT22;2055;50.074;8.436;2022-11-20T13:59:47;5.70;99.90
4081;DHT22;2055;50.074;8.436;2022-11-20T14:02:18;5.70;99.90
4081;DHT22;2055;50.074;8.436;2022-11-20T14:04:48;5.80;99.90
4081;DHT22;2055;50.074;8.436;2022-11-20T14:07:14;5.90;99.90
4081;DHT22;2055;50.074;8.436;2022-11-20T14:09:50;5.90;99.90
4081;DHT22;2055;50.074;8.436;2022-11-20T14:12:20;5.90;99.90
4081;DHT22;2055;50.074;8.436;2022-11-20T14:14:51;5.90;99.90
4081;DHT22;2055;50.074;8.436;2022-11-20T14:17:43;5.90;99.90
4081;DHT22;2055;50.074;8.436;2022-11-20T14:20:14;5.90;99.90
4081;DHT22;2055;50.074;8.436;2022-11-20T14:22:48;5.80;99.90
4081;DHT22;2055;50.074;8.436;2022-11-20T14:27:42;5.90;99.90
4081;DHT22;2055;50.074;8.436;2022-11-20T14:30:15;5.90;99.90
4081;DHT22;2055;50.074;8.436;2022-11-20T14:32:42;5.90;99.90
4081;DHT22;2055;50.074;8.436;2022-11-20T14:35:13;5.90;99.90
4081;DHT22;2055;50.074;8.436;2022-11-20T14:37:40;5.80;99.90
4081;DHT22;2055;50.074;8.436;2022-11-20T14:40:24;5.80;99.90
4081;DHT22;2055;50.074;8.436;2022-11-20T14:42:50;5.80;99.90
4081;DHT22;2055;50.074;8.436;2022-11-20T14:45:16;5.70;99.90
4081;DHT22;2055;50.074;8.436;2022-11-20T14:47:42;5.70;99.90
4081;DHT22;2055;50.074;8.436;2022-11-20T14:50:16;5.60;99.90
4081;DHT22;2055;50.074;8.436;2022-11-20T14:52:57;5.50;99.90
4081;DHT22;2055;50.074;8.436;2022-11-20T14:55:34;5.60;99.90
4081;DHT22;2055;50.074;8.436;2022-11-20T15:00:29;5.60;99.90
4081;DHT22;2055;50.074;8.436;2022-11-20T15:02:55;5.60;99.90
4081;DHT22;2055;50.074;8.436;2022-11-20T15:05:23;5.50;99.90
4081;DHT22;2055;50.074;8.436;2022-11-20T15:08:04;5.50;99.90
4081;DHT22;2055;50.074;8.436;2022-11-20T15:10:30;5.50;99.90
4081;DHT22;2055;50.074;8.436;2022-11-20T15:13:01;5.40;99.90
4081;DHT22;2055;50.074;8.436;2022-11-20T15:15:49;5.40;99.90
4081;DHT22;2055;50.074;8.436;2022-11-20T15:18:17;5.40;99.90
4081;DHT22;2055;50.074;8.436;2022-11-20T15:20:44;5.40;99.90
4081;DHT22;2055;50.074;8.436;2022-11-20T15:23:15;5.40;99.90
4081;DHT22;2055;50.074;8.436;2022-11-20T15:25:43;5.30;99.90
4081;DHT22;2055;50.074;8.436;2022-11-20T15:28:29;5.30;99.90
4081;DHT22;2055;50.074;8.436;2022-11-20T15:30:55;5.30;99.90
4081;DHT22;2055;50.074;8.436;2022-11-20T15:33:21;5.30;99.90
4081;DHT22;2055;50.074;8.436;2022-11-20T15:35:47;5.30;99.90
4081;DHT22;2055;50.074;8.436;2022-11-20T15:38:13;5.30;99.90
4081;DHT22;2055;50.074;8.436;2022-11-20T15:40:38;5.30;99.90
4081;DHT22;2055;50.074;8.436;2022-11-20T15:43:04;5.30;99.90
4081;DHT22;2055;50.074;8.436;2022-11-20T15:53:37;5.30;99.90
4081;DHT22;2055;50.074;8.436;2022-11-20T15:56:04;5.30;99.90
4081;DHT22;2055;50.074;8.436;2022-11-20T15:58:29;5.30;99.90
4081;DHT22;2055;50.074;8.436;2022-11-20T16:00:55;5.30;99.90
4081;DHT22;2055;50.074;8.436;2022-11-20T16:03:21;5.30;99.90
4081;DHT22;2055;50.074;8.436;2022-11-20T16:05:46;5.30;99.90
4081;DHT22;2055;50.074;8.436;2022-11-20T16:08:12;5.30;99.90
4081;DHT22;2055;50.074;8.436;2022-11-20T16:10:38;5.20;99.90
4081;DHT22;2055;50.074;8.436;2022-11-20T16:13:04;5.20;99.90
4081;DHT22;2055;50.074;8.436;2022-11-20T16:15:56;5.20;99.90
4081;DHT22;2055;50.074;8.436;2022-11-20T16:18:22;5.20;99.90
4081;DHT22;2055;50.074;8.436;2022-11-20T16:20:50;5.20;99.90
4081;DHT22;2055;50.074;8.436;2022-11-20T16:23:16;5.20;99.90
4081;DHT22;2055;50.074;8.436;2022-11-20T16:25:42;5.20;99.90
4081;DHT22;2055;50.074;8.436;2022-11-20T16:28:08;5.20;99.90
4081;DHT22;2055;50.074;8.436;2022-11-20T16:30:34;5.30;99.90
4081;DHT22;2055;50.074;8.436;2022-11-20T16:33:01;5.30;99.90
4081;DHT22;2055;50.074;8.436;2022-11-20T16:35:28;5.30;99.90
4081;DHT22;2055;50.074;8.436;2022-11-20T16:37:54;5.30;99.90
4081;DHT22;2055;50.074;8.436;2022-11-20T16:40:20;5.30;99.90
4081;DHT22;2055;50.074;8.436;2022-11-20T16:42:46;5.20;99.90
4081;DHT22;2055;50.074;8.436;2022-11-20T16:45:11;5.30;99.90
4081;DHT22;2055;50.074;8.436;2022-11-20T16:47:37;5.30;99.90
4081;DHT22;2055;50.074;8.436;2022-11-20T16:50:04;5.30;99.90
4081;DHT22;2055;50.074;8.436;2022-11-20T16:52:30;5.30;99.90
4081;DHT22;2055;50.074;8.436;2022-11-20T16:54:57;5.30;99.90
4081;DHT22;2055;50.074;8.436;2022-11-20T16:57:22;5.30;99.90
4081;DHT22;2055;50.074;8.436;2022-11-20T16:59:48;5.20;99.90
4081;DHT22;2055;50.074;8.436;2022-11-20T17:02:14;5.20;99.90
4081;DHT22;2055;50.074;8.436;2022-11-20T17:04:39;5.20;99.90
4081;DHT22;2055;50.074;8.436;2022-11-20T17:07:06;5.20;99.90
4081;DHT22;2055;50.074;8.436;2022-11-20T17:09:32;5.20;99.90
4081;DHT22;2055;50.074;8.436;2022-11-20T17:11:57;5.20;99.90
4081;DHT22;2055;50.074;8.436;2022-11-20T17:14:23;5.20;99.90
4081;DHT22;2055;50.074;8.436;2022-11-20T17:16:48;5.20;99.90
4081;DHT22;2055;50.074;8.436;2022-11-20T17:19:14;5.30;99.90
4081;DHT22;2055;50.074;8.436;2022-11-20T17:21:40;5.30;99.90
4081;DHT22;2055;50.074;8.436;2022-11-20T17:24:08;5.30;99.90
4081;DHT22;2055;50.074;8.436;2022-11-20T17:26:35;5.30;99.90
4081;DHT22;2055;50.074;8.436;2022-11-20T17:29:04;5.30;99.90
4081;DHT22;2055;50.074;8.436;2022-11-20T17:31:31;5.30;99.90
4081;DHT22;2055;50.074;8.436;2022-11-20T17:33:57;5.30;99.90
4081;DHT22;2055;50.074;8.436;2022-11-20T17:36:27;5.30;99.90
4081;DHT22;2055;50.074;8.436;2022-11-20T17:38:52;5.30;99.90
4081;DHT22;2055;50.074;8.436;2022-11-20T17:41:21;5.30;99.90
4081;DHT22;2055;50.074;8.436;2022-11-20T17:43:47;5.40;99.90
4081;DHT22;2055;50.074;8.436;2022-11-20T17:46:18;5.40;99.90
4081;DHT22;2055;50.074;8.436;2022-11-20T17:48:44;5.40;99.90
4081;DHT22;2055;50.074;8.436;2022-11-20T17:51:12;5.40;99.90
4081;DHT22;2055;50.074;8.436;2022-11-20T17:53:40;5.40;99.90
4081;DHT22;2055;50.074;8.436;2022-11-20T17:56:06;5.40;99.90
4081;DHT22;2055;50.074;8.436;2022-11-20T17:58:50;5.40;99.90
4081;DHT22;2055;50.074;8.436;2022-11-20T18:01:17;5.40;99.90
4081;DHT22;2055;50.074;8.436;2022-11-20T18:03:43;5.40;99.90